createdAt,value
2024-01-07T00:00:23.130Z,12.63
2024-01-07T00:03:10.028Z,12.57
2024-01-07T00:05:38.788Z,11.27
2024-01-07T00:08:06.141Z,11.00
2024-01-07T00:10:33.225Z,11.00
2024-01-07T00:13:00.675Z,11.38
2024-01-07T00:15:30.547Z,10.63
2024-01-07T00:17:57.560Z,10.38
2024-01-07T00:20:24.944Z,10.50
2024-01-07T00:22:51.772Z,10.57
2024-01-07T00:25:19.661Z,11.45
2024-01-07T00:27:46.878Z,11.23
2024-01-07T00:30:14.279Z,10.32
2024-01-07T00:32:41.344Z,11.07
2024-01-07T00:35:08.764Z,10.50
2024-01-07T00:37:36.268Z,10.13
2024-01-07T00:40:04.112Z,9.70
2024-01-07T00:42:31.365Z,10.60
2024-01-07T00:44:58.482Z,9.10
2024-01-07T00:47:25.341Z,8.95
2024-01-07T00:49:52.498Z,9.50
2024-01-07T00:52:19.697Z,9.90
2024-01-07T00:54:46.835Z,8.75
2024-01-07T00:57:13.747Z,10.05
2024-01-07T00:59:41.100Z,9.73
2024-01-07T01:02:08.219Z,8.18
2024-01-07T01:04:35.459Z,9.25
2024-01-07T01:07:02.408Z,9.25
2024-01-07T01:09:30.712Z,9.30
2024-01-07T01:11:57.580Z,8.43
2024-01-07T01:14:24.690Z,8.68
2024-01-07T01:16:51.504Z,8.30
2024-01-07T01:19:19.514Z,8.43
2024-01-07T01:21:46.398Z,7.68
2024-01-07T01:24:13.919Z,8.25
2024-01-07T01:26:40.754Z,7.63
2024-01-07T01:29:08.018Z,8.27
2024-01-07T01:31:34.938Z,7.85
2024-01-07T01:34:02.333Z,8.48
2024-01-07T01:36:29.304Z,7.53
2024-01-07T01:38:56.475Z,7.20
2024-01-07T01:41:23.266Z,7.20
2024-01-07T01:43:50.461Z,7.80
2024-01-07T01:46:17.303Z,8.00
2024-01-07T01:48:45.166Z,7.30
2024-01-07T01:51:12.525Z,7.30
2024-01-07T01:53:40.136Z,7.32
2024-01-07T01:56:08.054Z,7.38
2024-01-07T01:58:37.757Z,7.20
2024-01-07T02:01:07.432Z,6.95
2024-01-07T02:03:34.636Z,7.38
2024-01-07T02:06:01.609Z,7.40
2024-01-07T02:08:29.036Z,6.78
2024-01-07T02:10:55.927Z,6.47
2024-01-07T02:13:23.005Z,6.40
2024-01-07T02:15:49.914Z,6.45
2024-01-07T02:18:17.211Z,6.57
2024-01-07T02:20:44.059Z,7.28
2024-01-07T02:23:11.135Z,6.38
2024-01-07T02:25:38.370Z,6.10
2024-01-07T02:28:06.602Z,6.97
2024-01-07T02:30:33.679Z,7.20
2024-01-07T02:33:05.082Z,7.20
2024-01-07T02:35:32.099Z,8.13
2024-01-07T02:37:59.257Z,7.32
2024-01-07T02:40:26.224Z,7.72
2024-01-07T02:42:53.550Z,8.60
2024-01-07T02:45:20.441Z,7.85
2024-01-07T02:47:48.071Z,7.60
2024-01-07T02:50:15.032Z,8.10
2024-01-07T02:52:42.107Z,6.90
2024-01-07T02:55:09.586Z,7.90
2024-01-07T02:57:39.337Z,8.43
2024-01-07T03:00:07.146Z,7.85
2024-01-07T03:02:34.622Z,9.13
2024-01-07T03:05:01.566Z,8.57
2024-01-07T03:07:28.731Z,7.90
2024-01-07T03:09:55.805Z,7.45
2024-01-07T03:12:22.916Z,8.07
2024-01-07T03:14:49.704Z,7.65
2024-01-07T03:17:18.450Z,7.70
2024-01-07T03:19:45.801Z,8.38
2024-01-07T03:22:13.030Z,7.85
2024-01-07T03:24:39.921Z,8.02
2024-01-07T03:27:07.012Z,7.20
2024-01-07T03:29:34.205Z,7.10
2024-01-07T03:32:01.332Z,8.05
2024-01-07T03:34:28.237Z,7.57
2024-01-07T03:36:55.316Z,7.65
2024-01-07T03:39:22.069Z,8.20
2024-01-07T03:41:49.126Z,6.72
2024-01-07T03:44:15.987Z,7.57
2024-01-07T03:46:43.105Z,7.35
2024-01-07T03:49:10.032Z,7.95
2024-01-07T03:51:37.142Z,7.40
2024-01-07T03:54:04.205Z,7.18
2024-01-07T03:56:31.034Z,7.10
2024-01-07T03:58:58.166Z,7.40
2024-01-07T04:01:25.016Z,6.65
2024-01-07T04:03:52.265Z,6.65
2024-01-07T04:06:19.188Z,6.90
2024-01-07T04:08:46.228Z,6.90
2024-01-07T04:11:13.018Z,7.32
2024-01-07T04:13:40.136Z,7.03
2024-01-07T04:16:07.084Z,6.97
2024-01-07T04:18:35.418Z,6.80
2024-01-07T04:21:02.292Z,5.85
2024-01-07T04:23:29.406Z,7.18
2024-01-07T04:25:56.243Z,6.63
2024-01-07T04:28:23.292Z,6.60
2024-01-07T04:30:50.212Z,5.82
2024-01-07T04:33:18.201Z,5.60
2024-01-07T04:35:44.967Z,6.07
2024-01-07T04:38:12.069Z,6.47
2024-01-07T04:40:38.943Z,5.53
2024-01-07T04:43:06.065Z,5.32
2024-01-07T04:45:32.901Z,5.68
2024-01-07T04:48:00.110Z,5.97
2024-01-07T04:50:29.560Z,6.05
2024-01-07T04:52:56.760Z,5.43
2024-01-07T04:55:23.607Z,5.15
2024-01-07T04:57:50.840Z,5.43
2024-01-07T05:00:17.956Z,5.22
2024-01-07T05:02:45.004Z,5.10
2024-01-07T05:05:11.804Z,5.30
2024-01-07T05:07:39.542Z,4.75
2024-01-07T05:10:06.969Z,5.07
2024-01-07T05:12:34.213Z,5.45
2024-01-07T05:15:01.004Z,4.72
2024-01-07T05:17:27.854Z,5.00
2024-01-07T05:19:55.014Z,5.45
2024-01-07T05:22:22.810Z,4.80
2024-01-07T05:24:49.938Z,5.03
2024-01-07T05:27:16.790Z,5.63
2024-01-07T05:29:50.710Z,4.60
2024-01-07T05:32:17.509Z,5.00
2024-01-07T05:34:45.888Z,4.35
2024-01-07T05:37:12.681Z,5.15
2024-01-07T05:39:39.884Z,4.72
2024-01-07T05:42:06.750Z,4.28
2024-01-07T05:44:33.853Z,3.95
2024-01-07T05:47:00.657Z,4.10
2024-01-07T05:49:27.796Z,3.70
2024-01-07T05:51:55.475Z,4.10
2024-01-07T05:54:23.688Z,4.13
2024-01-07T05:56:50.531Z,3.63
2024-01-07T05:59:17.609Z,3.40
2024-01-07T06:01:44.645Z,3.65
2024-01-07T06:04:11.899Z,3.75
2024-01-07T06:06:38.955Z,3.40
2024-01-07T06:09:06.076Z,3.70
2024-01-07T06:11:32.879Z,3.92
2024-01-07T06:13:59.978Z,3.53
2024-01-07T06:16:26.776Z,3.30
2024-01-07T06:18:54.021Z,3.33
2024-01-07T06:21:20.924Z,3.50
2024-01-07T06:23:48.003Z,3.95
2024-01-07T06:26:19.064Z,4.25
2024-01-07T06:28:46.112Z,3.33
2024-01-07T06:31:12.920Z,3.60
2024-01-07T06:33:40.133Z,4.63
2024-01-07T06:36:07.146Z,4.95
2024-01-07T06:38:35.040Z,4.80
2024-01-07T06:41:05.048Z,4.47
2024-01-07T06:43:33.295Z,4.35
2024-01-07T06:46:00.799Z,3.38
2024-01-07T06:48:28.120Z,3.92
2024-01-07T06:50:55.091Z,3.95
2024-01-07T06:53:22.348Z,3.80
2024-01-07T06:55:49.103Z,3.70
2024-01-07T06:58:16.386Z,4.07
2024-01-07T07:00:44.099Z,3.53
2024-01-07T07:03:12.586Z,4.20
2024-01-07T07:05:39.870Z,3.78
2024-01-07T07:08:07.273Z,3.45
2024-01-07T07:10:34.140Z,3.70
2024-01-07T07:13:01.478Z,4.20
2024-01-07T07:15:29.857Z,3.90
2024-01-07T07:17:59.502Z,3.65
2024-01-07T07:20:26.446Z,3.30
2024-01-07T07:22:53.526Z,3.65
2024-01-07T07:25:20.352Z,3.78
2024-01-07T07:27:47.523Z,3.83
2024-01-07T07:30:14.678Z,4.05
2024-01-07T07:32:42.939Z,4.07
2024-01-07T07:35:09.863Z,4.07
2024-01-07T07:37:37.317Z,3.67
2024-01-07T07:40:04.468Z,3.80
2024-01-07T07:42:32.015Z,3.65
2024-01-07T07:45:03.136Z,3.17
2024-01-07T07:47:31.017Z,3.17
2024-01-07T07:49:58.286Z,3.20
2024-01-07T07:52:27.048Z,3.38
2024-01-07T07:54:54.361Z,3.47
2024-01-07T07:57:22.540Z,3.08
2024-01-07T07:59:50.370Z,3.38
2024-01-07T08:02:17.727Z,3.47
2024-01-07T08:04:45.110Z,3.70
2024-01-07T08:07:12.275Z,3.30
2024-01-07T08:09:39.206Z,3.38
2024-01-07T08:12:07.436Z,3.08
2024-01-07T08:14:34.477Z,2.90
2024-01-07T08:17:01.561Z,3.20
2024-01-07T08:19:28.564Z,3.17
2024-01-07T08:21:57.674Z,3.20
2024-01-07T08:24:24.672Z,3.30
2024-01-07T08:26:52.911Z,3.55
2024-01-07T08:29:19.819Z,3.40
2024-01-07T08:31:47.406Z,3.63
2024-01-07T08:34:16.384Z,3.42
2024-01-07T08:36:43.709Z,3.60
2024-01-07T08:39:12.301Z,2.92
2024-01-07T08:41:39.505Z,3.60
2024-01-07T08:44:06.454Z,3.60
2024-01-07T08:46:33.518Z,3.53
2024-01-07T08:49:00.560Z,2.95
2024-01-07T08:51:27.988Z,2.88
2024-01-07T08:53:55.687Z,3.00
2024-01-07T08:56:22.793Z,3.33
2024-01-07T08:58:49.596Z,3.13
2024-01-07T09:01:16.747Z,3.30
2024-01-07T09:03:43.829Z,3.42
2024-01-07T09:06:11.137Z,3.00
2024-01-07T09:08:38.036Z,2.78
2024-01-07T09:11:07.204Z,4.00
2024-01-07T09:13:33.992Z,7.57
2024-01-07T09:16:01.157Z,4.22
2024-01-07T09:18:28.123Z,3.88
2024-01-07T09:20:55.266Z,4.40
2024-01-07T09:23:22.292Z,3.53
2024-01-07T09:25:50.346Z,2.75
2024-01-07T09:28:17.631Z,2.42
2024-01-07T09:30:45.003Z,2.38
2024-01-07T09:33:11.978Z,2.90
2024-01-07T09:35:39.112Z,2.95
2024-01-07T09:38:05.890Z,2.88
2024-01-07T09:40:33.222Z,3.25
2024-01-07T09:43:00.711Z,3.55
2024-01-07T09:45:31.125Z,3.40
2024-01-07T09:47:58.293Z,3.55
2024-01-07T09:50:26.148Z,2.97
2024-01-07T09:52:59.097Z,3.67
2024-01-07T09:55:46.095Z,3.25
2024-01-07T09:58:13.362Z,3.03
2024-01-07T10:00:41.262Z,3.00
2024-01-07T10:03:08.255Z,2.60
2024-01-07T10:05:35.450Z,2.80
2024-01-07T10:08:03.295Z,3.30
2024-01-07T10:10:30.553Z,2.72
2024-01-07T10:12:58.069Z,3.20
2024-01-07T10:15:25.330Z,3.10
2024-01-07T10:17:56.804Z,2.25
2024-01-07T10:20:23.871Z,2.35
2024-01-07T10:22:53.847Z,3.17
2024-01-07T10:25:20.984Z,3.20
2024-01-07T10:27:47.868Z,2.53
2024-01-07T10:30:17.394Z,2.58
2024-01-07T10:32:44.699Z,2.78
2024-01-07T10:35:17.599Z,2.60
2024-01-07T10:37:46.398Z,3.08
2024-01-07T10:40:14.053Z,3.10
2024-01-07T10:42:44.015Z,2.42
2024-01-07T10:45:11.923Z,2.65
2024-01-07T10:47:42.832Z,2.70
2024-01-07T10:50:13.348Z,2.30
2024-01-07T10:52:42.421Z,2.30
2024-01-07T10:55:11.403Z,2.65
2024-01-07T10:57:46.964Z,3.30
2024-01-07T11:00:21.550Z,3.90
2024-01-07T11:03:13.172Z,4.07
2024-01-07T11:05:50.205Z,3.45
2024-01-07T11:08:25.168Z,3.45
2024-01-07T11:11:00.733Z,3.20
2024-01-07T11:13:39.041Z,4.75
2024-01-07T11:16:12.873Z,4.70
2024-01-07T11:21:25.880Z,2.40
2024-01-07T11:23:54.373Z,3.10
2024-01-07T11:26:22.051Z,2.33
2024-01-07T11:28:52.904Z,2.67
2024-01-07T11:31:21.652Z,2.80
2024-01-07T11:33:52.283Z,3.55
2024-01-07T11:36:19.875Z,3.95
2024-01-07T11:38:53.363Z,3.80
2024-01-07T11:41:23.044Z,3.97
2024-01-07T11:44:05.088Z,4.45
2024-01-07T11:49:04.487Z,4.57
2024-01-07T11:51:33.654Z,4.72
2024-01-07T11:54:02.135Z,3.95
2024-01-07T11:56:30.116Z,3.80
2024-01-07T11:59:00.802Z,4.40
2024-01-07T12:01:28.431Z,3.97
2024-01-07T12:03:55.761Z,4.28
2024-01-07T12:06:23.089Z,3.38
2024-01-07T12:08:50.060Z,3.58
2024-01-07T12:11:17.832Z,3.67
2024-01-07T12:13:45.482Z,3.80
2024-01-07T12:16:15.589Z,3.53
2024-01-07T12:18:43.548Z,3.85
2024-01-07T12:21:10.899Z,4.30
2024-01-07T12:23:41.526Z,3.60
2024-01-07T12:26:12.102Z,3.63
2024-01-07T12:28:39.575Z,3.60
2024-01-07T12:31:08.314Z,3.72
2024-01-07T12:33:35.516Z,3.53
2024-01-07T12:36:03.066Z,3.83
2024-01-07T12:38:30.478Z,4.65
2024-01-07T12:40:57.858Z,4.05
2024-01-07T12:43:24.824Z,4.22
2024-01-07T12:45:52.250Z,4.70
2024-01-07T12:48:19.364Z,4.40
2024-01-07T12:50:46.578Z,4.72
2024-01-07T12:53:13.741Z,4.93
2024-01-07T12:55:41.307Z,5.22
2024-01-07T12:58:08.596Z,5.55
2024-01-07T13:00:36.689Z,5.60
2024-01-07T13:03:08.153Z,5.65
2024-01-07T13:05:35.595Z,5.55
2024-01-07T13:08:02.513Z,5.93
2024-01-07T13:10:29.730Z,7.03
2024-01-07T13:13:04.921Z,5.80
2024-01-07T13:15:35.578Z,6.50
2024-01-07T13:18:02.528Z,7.53
2024-01-07T13:20:29.712Z,6.20
2024-01-07T13:23:01.120Z,6.80
2024-01-07T13:25:29.402Z,6.82
2024-01-07T13:27:56.356Z,5.85
2024-01-07T13:30:23.521Z,6.78
2024-01-07T13:32:50.949Z,6.20
2024-01-07T13:35:18.544Z,6.13
2024-01-07T13:37:45.491Z,6.55
2024-01-07T13:40:15.534Z,6.18
2024-01-07T13:42:42.884Z,6.30
2024-01-07T13:45:10.140Z,6.45
2024-01-07T13:47:37.132Z,6.38
2024-01-07T13:50:05.084Z,6.45
2024-01-07T13:52:32.277Z,6.18
2024-01-07T13:54:59.562Z,6.68
2024-01-07T13:57:26.455Z,6.07
2024-01-07T13:59:53.566Z,7.25
2024-01-07T14:02:20.790Z,6.22
2024-01-07T14:04:49.412Z,6.40
2024-01-07T14:07:16.372Z,6.90
2024-01-07T14:09:43.700Z,6.78
2024-01-07T14:12:10.565Z,7.50
2024-01-07T14:14:37.706Z,6.53
2024-01-07T14:17:04.685Z,7.43
2024-01-07T14:19:32.145Z,7.20
2024-01-07T14:21:59.687Z,7.20
2024-01-07T14:24:26.855Z,6.25
2024-01-07T14:26:54.213Z,6.82
2024-01-07T14:29:22.541Z,8.05
2024-01-07T14:31:49.509Z,7.50
2024-01-07T14:34:17.179Z,8.77
2024-01-07T14:36:44.816Z,8.57
2024-01-07T14:39:14.680Z,8.23
2024-01-07T14:41:41.971Z,7.22
2024-01-07T14:44:12.392Z,8.23
2024-01-07T14:46:40.689Z,8.40
2024-01-07T14:49:08.859Z,6.82
2024-01-07T14:51:35.990Z,7.10
2024-01-07T14:54:03.994Z,7.13
2024-01-07T14:56:30.920Z,7.25
2024-01-07T14:58:57.966Z,7.15
2024-01-07T15:01:25.583Z,7.68
2024-01-07T15:03:53.050Z,7.43
2024-01-07T15:06:20.029Z,7.28
2024-01-07T15:08:48.713Z,6.90
2024-01-07T15:11:16.532Z,6.57
2024-01-07T15:13:44.892Z,6.43
2024-01-07T15:16:12.024Z,6.40
2024-01-07T15:18:39.374Z,7.43
2024-01-07T15:21:06.982Z,6.80
2024-01-07T15:23:34.149Z,7.22
2024-01-07T15:26:00.936Z,7.80
2024-01-07T15:28:28.151Z,7.28
2024-01-07T15:30:55.839Z,7.68
2024-01-07T15:33:23.258Z,7.20
2024-01-07T15:35:50.096Z,7.30
2024-01-07T15:38:17.194Z,6.82
2024-01-07T15:40:44.058Z,6.28
2024-01-07T15:43:13.773Z,6.95
2024-01-07T15:45:41.040Z,7.43
2024-01-07T15:48:08.448Z,7.63
2024-01-07T15:50:35.544Z,6.78
2024-01-07T15:53:05.918Z,6.75
2024-01-07T15:55:36.131Z,6.50
2024-01-07T15:58:03.800Z,7.55
2024-01-07T16:00:30.904Z,7.78
2024-01-07T16:02:59.524Z,6.22
2024-01-07T16:05:29.037Z,7.38
2024-01-07T16:07:56.336Z,6.30
2024-01-07T16:10:23.595Z,6.75
2024-01-07T16:12:50.912Z,7.10
2024-01-07T16:15:17.898Z,7.75
2024-01-07T16:17:48.090Z,7.15
2024-01-07T16:20:15.155Z,6.75
2024-01-07T16:22:42.306Z,7.38
2024-01-07T16:25:09.477Z,6.88
2024-01-07T16:27:36.864Z,7.20
2024-01-07T16:30:05.397Z,7.30
2024-01-07T16:32:32.719Z,7.43
2024-01-07T16:34:59.756Z,7.30
2024-01-07T16:37:27.064Z,7.10
2024-01-07T16:39:53.985Z,7.80
2024-01-07T16:42:21.170Z,7.03
2024-01-07T16:44:48.027Z,7.43
2024-01-07T16:47:15.598Z,6.82
2024-01-07T16:52:12.550Z,7.47
2024-01-07T16:54:39.638Z,7.03
2024-01-07T16:57:06.698Z,7.63
2024-01-07T16:59:33.779Z,7.30
2024-01-07T17:02:01.488Z,7.22
2024-01-07T17:04:28.498Z,8.38
2024-01-07T17:06:55.626Z,8.30
2024-01-07T17:09:24.821Z,7.72
2024-01-07T17:11:52.404Z,8.00
2024-01-07T17:14:19.285Z,7.70
2024-01-07T17:16:47.441Z,8.80
2024-01-07T17:19:14.656Z,8.52
2024-01-07T17:21:42.164Z,8.35
2024-01-07T17:24:09.628Z,7.78
2024-01-07T17:26:36.781Z,9.35
2024-01-07T17:29:03.842Z,8.27
2024-01-07T17:31:30.943Z,7.95
2024-01-07T17:33:58.893Z,8.00
2024-01-07T17:36:26.081Z,8.00
2024-01-07T17:38:54.039Z,8.00
2024-01-07T17:41:21.321Z,7.85
2024-01-07T17:43:48.487Z,8.25
2024-01-07T17:46:16.164Z,8.52
2024-01-07T17:48:43.043Z,8.15
2024-01-07T17:51:10.135Z,7.53
2024-01-07T17:53:43.025Z,8.05
2024-01-07T17:56:19.070Z,8.20
2024-01-07T17:58:46.295Z,8.20
2024-01-07T18:01:13.677Z,7.75
2024-01-07T18:03:40.614Z,7.72
2024-01-07T18:06:07.892Z,9.18
2024-01-07T18:08:42.442Z,8.13
2024-01-07T18:11:15.305Z,7.68
2024-01-07T18:13:43.046Z,8.50
2024-01-07T18:16:13.542Z,7.85
2024-01-07T18:18:40.840Z,8.48
2024-01-07T18:21:07.988Z,8.52
2024-01-07T18:23:34.852Z,8.77
2024-01-07T18:26:02.075Z,8.35
2024-01-07T18:28:28.883Z,8.90
2024-01-07T18:30:56.003Z,9.45
2024-01-07T18:33:24.664Z,8.20
2024-01-07T18:35:51.827Z,8.70
2024-01-07T18:38:21.562Z,8.35
2024-01-07T18:40:48.720Z,8.73
2024-01-07T18:43:15.528Z,7.82
2024-01-07T18:45:42.721Z,8.75
2024-01-07T18:48:09.658Z,8.70
2024-01-07T18:50:36.949Z,8.15
2024-01-07T18:53:03.985Z,8.48
2024-01-07T18:55:32.323Z,7.93
2024-01-07T18:57:59.645Z,8.07
2024-01-07T19:00:26.883Z,6.97
2024-01-07T19:02:53.803Z,8.20
2024-01-07T19:05:21.231Z,8.07
2024-01-07T19:07:48.219Z,8.02
2024-01-07T19:10:15.402Z,8.10
2024-01-07T19:12:42.265Z,7.95
2024-01-07T19:15:12.111Z,7.60
2024-01-07T19:17:40.589Z,8.27
2024-01-07T19:20:08.710Z,7.97
2024-01-07T19:22:35.905Z,7.65
2024-01-07T19:25:03.506Z,7.75
2024-01-07T19:27:30.301Z,7.68
2024-01-07T19:29:57.347Z,7.90
2024-01-07T19:32:24.247Z,7.97
2024-01-07T19:34:53.166Z,7.60
2024-01-07T19:37:20.684Z,7.20
2024-01-07T19:39:47.857Z,8.30
2024-01-07T19:42:15.464Z,7.07
2024-01-07T19:44:43.845Z,7.53
2024-01-07T19:47:12.395Z,7.22
2024-01-07T19:49:39.689Z,7.85
2024-01-07T19:52:07.540Z,6.90
2024-01-07T19:54:34.649Z,7.53
2024-01-07T19:57:01.716Z,7.75
2024-01-07T19:59:28.921Z,6.47
2024-01-07T20:01:55.926Z,7.20
2024-01-07T20:04:25.072Z,6.97
2024-01-07T20:06:52.016Z,6.97
2024-01-07T20:09:20.140Z,6.38
2024-01-07T20:11:47.972Z,7.18
2024-01-07T20:14:15.656Z,6.38
2024-01-07T20:16:42.568Z,6.32
2024-01-07T20:19:10.241Z,6.90
2024-01-07T20:21:38.656Z,8.07
2024-01-07T20:24:06.969Z,6.70
2024-01-07T20:26:33.831Z,7.45
2024-01-07T20:29:03.778Z,6.90
2024-01-07T20:31:30.647Z,7.68
2024-01-07T20:33:58.711Z,5.97
2024-01-07T20:36:26.726Z,7.20
2024-01-07T20:38:53.871Z,6.45
2024-01-07T20:41:22.387Z,8.10
2024-01-07T20:43:50.728Z,7.43
2024-01-07T20:46:17.623Z,6.38
2024-01-07T20:48:44.791Z,7.10
2024-01-07T20:51:14.240Z,7.45
2024-01-07T20:53:43.422Z,6.22
2024-01-07T20:56:10.646Z,6.93
2024-01-07T20:58:37.888Z,6.45
2024-01-07T21:01:05.030Z,7.10
2024-01-07T21:03:32.438Z,6.90
2024-01-07T21:06:00.299Z,7.55
2024-01-07T21:08:29.529Z,7.50
2024-01-07T21:10:58.658Z,7.32
2024-01-07T21:13:26.111Z,6.50
2024-01-07T21:15:53.002Z,7.47
2024-01-07T21:18:23.150Z,7.15
2024-01-07T21:20:50.799Z,7.40
2024-01-07T21:23:19.241Z,7.65
2024-01-07T21:25:46.620Z,7.05
2024-01-07T21:28:14.563Z,7.40
2024-01-07T21:30:41.847Z,6.80
2024-01-07T21:33:09.103Z,7.38
2024-01-07T21:35:38.925Z,7.40
2024-01-07T21:38:06.154Z,6.63
2024-01-07T21:40:33.228Z,7.38
2024-01-07T21:43:00.329Z,7.28
2024-01-07T21:45:27.128Z,6.78
2024-01-07T21:47:54.397Z,7.25
2024-01-07T21:50:21.421Z,7.38
2024-01-07T21:52:58.877Z,7.80
2024-01-07T21:55:25.759Z,8.27
2024-01-07T21:57:52.919Z,7.43
2024-01-07T22:00:19.905Z,7.55
2024-01-07T22:02:48.204Z,7.78
2024-01-07T22:05:15.845Z,8.60
2024-01-07T22:07:43.304Z,8.95
2024-01-07T22:10:12.885Z,7.68
2024-01-07T22:12:39.978Z,8.05
2024-01-07T22:15:08.214Z,8.07
2024-01-07T22:17:36.446Z,7.57
2024-01-07T22:20:05.684Z,7.32
2024-01-07T22:22:33.082Z,6.88
2024-01-07T22:25:00.221Z,8.02
2024-01-07T22:27:27.368Z,9.20
2024-01-07T22:29:54.197Z,8.43
2024-01-07T22:32:21.605Z,8.93
2024-01-07T22:34:48.513Z,7.60
2024-01-07T22:37:15.614Z,9.85
2024-01-07T22:39:43.265Z,8.77
2024-01-07T22:42:10.346Z,8.73
2024-01-07T22:44:37.191Z,8.00
2024-01-07T22:47:04.706Z,9.25
2024-01-07T22:49:31.615Z,9.20
2024-01-07T22:51:59.324Z,8.90
2024-01-07T22:54:26.280Z,9.70
2024-01-07T22:56:53.661Z,8.50
2024-01-07T22:59:21.150Z,8.35
2024-01-07T23:01:49.127Z,8.52
2024-01-07T23:04:16.037Z,8.32
2024-01-07T23:06:43.242Z,9.25
2024-01-07T23:09:12.125Z,9.48
2024-01-07T23:11:39.400Z,9.32
2024-01-07T23:14:06.682Z,8.57
2024-01-07T23:16:36.779Z,8.50
2024-01-07T23:19:04.489Z,8.30
2024-01-07T23:21:31.743Z,8.55
2024-01-07T23:23:58.595Z,8.05
2024-01-07T23:26:26.000Z,9.25
2024-01-07T23:28:52.990Z,8.15
2024-01-07T23:31:20.381Z,9.18
2024-01-07T23:33:47.546Z,9.90
2024-01-07T23:36:16.089Z,8.07
2024-01-07T23:38:43.254Z,8.73
2024-01-07T23:41:10.558Z,9.32
2024-01-07T23:43:37.413Z,9.45
2024-01-07T23:46:06.134Z,9.32
2024-01-07T23:48:33.129Z,9.52
2024-01-07T23:51:00.352Z,10.55
2024-01-07T23:53:27.210Z,8.88
2024-01-07T23:55:54.592Z,9.93
2024-01-07T23:58:21.768Z,10.07
